Time;durP1;ratioP1;P1;durP2;ratioP2;P2;SDS_P1;SDS_P2;PMS_P1;PMS_P2;Temp;Humidity;BMP_temperature;BMP_pressure;BME280_temperature;BME280_humidity;BME280_pressure;Samples;Min_cycle;Max_cycle;Signal;HPM_P1;HPM_P2
2021/11/10 00:01:52;;;;;;;2.95;1.23;;;;;;;-2.78;59.97;101118.16;4975012;28;20046;-73
2021/11/10 00:04:19;;;;;;;2.33;1.20;;;;;;;-2.72;59.78;101124.19;4974700;28;20074;-73
2021/11/10 00:06:45;;;;;;;2.97;1.02;;;;;;;-2.71;59.68;101136.28;4970920;28;20094;-72
2021/11/10 00:09:11;;;;;;;4.28;1.50;;;;;;;-2.68;60.09;101142.31;4954818;28;20047;-72
2021/11/10 00:11:37;;;;;;;4.38;1.08;;;;;;;-2.68;60.00;101141.44;4954813;29;20106;-72
2021/11/10 00:14:04;;;;;;;4.47;1.20;;;;;;;-2.65;59.84;101144.06;4954852;28;20129;-73
2021/11/10 00:16:30;;;;;;;3.97;1.40;;;;;;;-2.51;59.65;101144.91;4954788;29;20501;-72
2021/11/10 00:18:56;;;;;;;1.73;0.85;;;;;;;-2.46;59.45;101150.97;4959251;28;20563;-72
2021/11/10 00:21:24;;;;;;;5.07;1.50;;;;;;;-2.35;59.40;101152.72;4973407;28;20051;-72
2021/11/10 00:23:51;;;;;;;2.90;1.20;;;;;;;-2.24;58.86;101169.13;4973996;28;20043;-73
2021/11/10 00:26:18;;;;;;;1.98;0.82;;;;;;;-2.19;58.58;101159.59;4938063;28;20043;-73
2021/11/10 00:28:45;;;;;;;1.85;1.02;;;;;;;-2.14;58.57;101165.66;4954808;28;20407;-73
2021/11/10 00:31:11;;;;;;;2.40;1.00;;;;;;;-2.05;58.27;101179.47;4954066;28;20074;-73
2021/11/10 00:33:36;;;;;;;3.10;1.08;;;;;;;-1.98;57.91;101165.66;4954134;28;20066;-72
2021/11/10 00:36:04;;;;;;;6.05;1.70;;;;;;;-1.84;58.28;101178.59;4954418;29;20046;-73
2021/11/10 00:38:30;;;;;;;3.13;1.17;;;;;;;-1.74;58.16;101179.44;4957207;28;20073;-72
2021/11/10 00:40:56;;;;;;;2.92;1.20;;;;;;;-1.63;57.13;101177.69;4956943;28;20556;-73
2021/11/10 00:43:22;;;;;;;2.13;0.98;;;;;;;-1.51;56.93;101175.06;4948408;29;20043;-72
2021/11/10 00:45:49;;;;;;;4.93;1.38;;;;;;;-1.41;56.57;101183.66;4946414;28;20073;-72
2021/11/10 00:48:16;;;;;;;4.40;1.50;;;;;;;-1.30;56.54;101186.22;4970382;28;20050;-72
2021/11/10 00:50:43;;;;;;;8.73;1.40;;;;;;;-1.18;56.26;101185.34;4958431;28;20138;-75
2021/11/10 00:53:08;;;;;;;4.07;1.50;;;;;;;-1.15;56.18;101178.41;4952850;28;20118;-74
2021/11/10 00:55:35;;;;;;;2.10;1.05;;;;;;;-1.12;55.95;101187.03;4936776;29;20480;-72
2021/11/10 00:58:01;;;;;;;3.13;1.10;;;;;;;-1.05;56.03;101186.13;4954485;29;20126;-74
2021/11/10 01:00:28;;;;;;;4.45;1.20;;;;;;;-0.96;55.81;101196.47;4961037;28;20145;-71
2021/11/10 01:02:54;;;;;;;5.60;1.70;;;;;;;-0.99;55.25;101188.72;4953544;28;20522;-72
2021/11/10 01:05:20;;;;;;;4.00;1.80;;;;;;;-0.96;55.38;101195.63;4955834;28;20133;-73
2021/11/10 01:07:46;;;;;;;4.03;2.00;;;;;;;-0.98;55.24;101208.63;4972221;28;20484;-72
2021/11/10 01:10:12;;;;;;;3.80;1.60;;;;;;;-0.98;55.41;101198.22;4955843;28;20058;-72
2021/11/10 01:12:38;;;;;;;2.83;1.67;;;;;;;-0.92;54.83;101208.59;4955709;28;20046;-73
2021/11/10 01:15:06;;;;;;;6.88;1.90;;;;;;;-0.99;55.29;101201.69;4972092;28;20500;-72
2021/11/10 01:17:32;;;;;;;3.40;1.70;;;;;;;-1.10;55.44;101201.72;4936835;29;20098;-71
2021/11/10 01:19:59;;;;;;;6.38;1.80;;;;;;;-1.05;55.53;101204.31;4952040;29;20082;-73
2021/11/10 01:22:28;;;;;;;4.45;1.80;;;;;;;-1.09;55.66;101206.06;4937210;28;20063;-71
2021/11/10 01:24:54;;;;;;;6.32;1.80;;;;;;;-1.18;55.60;101214.75;4956583;28;20047;-72
2021/11/10 01:27:20;;;;;;;4.53;1.55;;;;;;;-1.22;55.67;101215.63;4953344;28;20066;-72
2021/11/10 01:29:47;;;;;;;4.78;1.60;;;;;;;-1.22;55.52;101220.81;4954970;28;20055;-72
2021/11/10 01:32:14;;;;;;;2.72;1.60;;;;;;;-1.12;55.39;101213.00;4960432;28;20125;-73
2021/11/10 01:34:41;;;;;;;4.97;1.60;;;;;;;-1.11;55.13;101217.31;4920123;29;20070;-71
2021/11/10 01:37:12;;;;;;;3.45;1.38;;;;;;;-1.10;55.04;101225.09;4952208;28;20456;-74
2021/11/10 01:39:38;;;;;;;6.63;1.35;;;;;;;-1.08;54.71;101219.91;4954832;28;20070;-73
2021/11/10 01:42:06;;;;;;;3.58;1.58;;;;;;;-1.20;54.91;101213.88;4944722;29;20051;-74
2021/11/10 01:44:36;;;;;;;7.45;2.17;;;;;;;-1.44;55.24;101213.97;4951207;28;20054;-75
2021/11/10 01:47:10;;;;;;;2.83;1.30;;;;;;;-1.58;55.49;101220.06;4952150;29;20051;-77
2021/11/10 01:49:39;;;;;;;5.13;1.60;;;;;;;-1.71;56.21;101226.13;4952020;29;20099;-72
2021/11/10 01:52:05;;;;;;;4.03;1.77;;;;;;;-1.83;56.18;101217.50;4967938;28;20046;-74
2021/11/10 01:54:33;;;;;;;4.93;1.60;;;;;;;-1.91;56.65;101224.41;4954326;28;20057;-72
2021/11/10 01:57:02;;;;;;;4.28;1.30;;;;;;;-1.97;56.98;101230.47;4955239;28;20047;-73
2021/11/10 01:59:46;;;;;;;2.78;1.30;;;;;;;-2.03;56.77;101235.66;4971001;28;20640;-72
2021/11/10 02:02:22;;;;;;;3.38;1.10;;;;;;;-2.01;56.84;101239.09;4951689;28;20155;-74
2021/11/10 02:04:55;;;;;;;3.90;1.50;;;;;;;-1.95;56.98;101251.19;4934830;29;20567;-73
2021/11/10 02:07:21;;;;;;;3.17;2.00;;;;;;;-1.93;57.36;101246.88;4951483;28;20049;-71
2021/11/10 02:09:49;;;;;;;3.70;1.23;;;;;;;-1.90;56.85;101257.25;4951695;29;20210;-72
2021/11/10 02:12:17;;;;;;;6.28;1.45;;;;;;;-1.94;57.25;101273.66;4951585;28;20043;-73
2021/11/10 02:14:47;;;;;;;2.65;1.15;;;;;;;-2.05;58.03;101267.63;4935406;29;20051;-72
2021/11/10 02:17:16;;;;;;;3.35;1.50;;;;;;;-2.08;57.97;101259.81;4967357;28;20694;-73
2021/11/10 02:19:42;;;;;;;3.67;1.60;;;;;;;-2.14;58.15;101269.31;4973461;28;20038;-71
2021/11/10 02:22:19;;;;;;;3.67;1.60;;;;;;;-2.26;58.48;101269.31;4957123;28;20094;-72
2021/11/10 02:24:45;;;;;;;11.10;1.90;;;;;;;-2.27;58.70;101267.56;4938714;29;20832;-71
2021/11/10 02:27:21;;;;;;;4.97;1.65;;;;;;;-2.28;58.86;101276.19;4938947;29;20055;-72
2021/11/10 02:29:49;;;;;;;7.22;1.50;;;;;;;-2.25;58.86;101275.38;4939365;29;20054;-73
2021/11/10 02:32:16;;;;;;;4.13;1.75;;;;;;;-2.16;58.85;101277.97;4971377;28;20038;-71
2021/11/10 02:34:43;;;;;;;4.60;1.50;;;;;;;-2.14;59.10;101282.28;4958076;28;20042;-73
2021/11/10 02:37:11;;;;;;;3.67;1.50;;;;;;;-2.12;59.09;101277.09;4947118;28;20047;-74
2021/11/10 02:39:37;;;;;;;3.42;1.65;;;;;;;-2.06;59.23;101276.25;4975190;28;20061;-72
2021/11/10 02:42:05;;;;;;;5.82;1.73;;;;;;;-1.93;58.50;101282.31;4976285;28;20451;-71
2021/11/10 02:44:31;;;;;;;11.67;2.20;;;;;;;-1.89;58.54;101282.31;4975782;28;20133;-71
2021/11/10 02:46:57;;;;;;;4.50;2.42;;;;;;;-1.82;58.25;101294.41;4971707;28;20784;-72
2021/11/10 02:49:23;;;;;;;3.40;1.80;;;;;;;-1.83;58.38;101287.50;4937264;29;20047;-73
2021/11/10 02:52:02;;;;;;;3.42;1.55;;;;;;;-1.72;58.23;101277.13;4941591;29;20121;-74
2021/11/10 02:54:30;;;;;;;3.92;1.42;;;;;;;-1.77;58.02;101278.84;4938835;28;20035;-73
2021/11/10 02:56:58;;;;;;;;;;;;;;;-1.84;58.19;101290.94;4939099;29;20051;-74
2021/11/10 02:59:24;;;;;;;5.35;1.95;;;;;;;-1.81;57.98;101298.75;4939698;28;19918;-73
2021/11/10 03:01:51;;;;;;;4.78;1.92;;;;;;;-1.77;58.14;101298.75;4922805;29;20102;-73
2021/11/10 03:04:29;;;;;;;5.07;1.50;;;;;;;-1.66;57.56;101307.38;4938679;29;20051;-74
2021/11/10 03:06:56;;;;;;;5.68;2.10;;;;;;;-1.63;57.56;101299.63;4952926;28;20046;-72
2021/11/10 03:09:25;;;;;;;5.82;1.75;;;;;;;-1.61;57.45;101292.69;4974668;28;20043;-73
2021/11/10 03:11:57;;;;;;;4.38;1.70;;;;;;;-1.49;57.24;101304.78;4957202;28;20113;-72
2021/11/10 03:14:26;;;;;;;5.82;1.85;;;;;;;-1.42;57.30;101300.44;4973553;28;20481;-74
2021/11/10 03:16:53;;;;;;;3.45;1.73;;;;;;;-1.42;57.03;101295.25;4959150;28;20039;-72
2021/11/10 03:19:23;;;;;;;3.58;1.88;;;;;;;-1.49;56.95;101292.66;4957171;28;20420;-74
2021/11/10 03:21:50;;;;;;;11.80;2.15;;;;;;;-1.43;57.22;101294.41;4941877;28;20182;-72
2021/11/10 03:24:19;;;;;;;4.97;1.90;;;;;;;-1.37;57.16;101309.97;4957232;28;20431;-73
2021/11/10 03:26:47;;;;;;;8.80;1.70;;;;;;;-1.34;57.04;101304.75;4972161;28;20162;-73
2021/11/10 03:29:14;;;;;;;7.47;1.98;;;;;;;-1.37;57.14;101309.09;4959789;28;20047;-72
2021/11/10 03:31:42;;;;;;;3.58;1.98;;;;;;;-1.29;57.31;101312.53;4937847;29;20047;-72
2021/11/10 03:34:14;;;;;;;8.63;2.67;;;;;;;-1.30;56.92;101321.19;4948919;28;20503;-72
2021/11/10 03:36:40;;;;;;;8.70;2.00;;;;;;;-1.19;56.92;101322.03;4958049;28;20137;-73
2021/11/10 03:39:10;;;;;;;4.35;2.10;;;;;;;-1.21;56.98;101313.41;4956928;28;20049;-73
2021/11/10 03:41:39;;;;;;;11.88;2.10;;;;;;;-1.15;56.90;101318.59;4954770;28;20047;-75
2021/11/10 03:44:05;;;;;;;6.95;1.98;;;;;;;-1.08;56.87;101318.59;4970704;28;20050;-72
2021/11/10 03:46:37;;;;;;;4.28;1.65;;;;;;;-1.13;56.59;101321.19;4972687;28;20084;-73
2021/11/10 03:49:06;;;;;;;3.22;1.75;;;;;;;-1.07;56.67;101325.47;4956149;28;20043;-73
2021/11/10 03:51:32;;;;;;;4.30;1.73;;;;;;;-1.10;56.92;101328.09;4964111;28;20122;-74
2021/11/10 03:54:02;;;;;;;6.90;3.13;;;;;;;-1.05;56.86;101318.56;4937244;29;20055;-76
2021/11/10 03:56:31;;;;;;;5.43;2.20;;;;;;;-0.92;56.70;101321.97;4921914;29;20039;-74
2021/11/10 03:58:57;;;;;;;6.07;1.95;;;;;;;-0.94;56.27;101311.59;4955147;28;20062;-74
2021/11/10 04:01:24;;;;;;;6.55;2.45;;;;;;;-0.92;56.66;101315.06;4936505;29;20536;-73
2021/11/10 04:03:52;;;;;;;10.52;2.45;;;;;;;-1.01;56.75;101313.34;4934123;28;20038;-73
2021/11/10 04:06:19;;;;;;;6.18;2.10;;;;;;;-0.85;57.00;101308.09;4950097;28;20051;-76
2021/11/10 04:08:45;;;;;;;5.57;2.22;;;;;;;-0.75;56.22;101311.53;4917386;29;20051;-73
2021/11/10 04:11:12;;;;;;;5.15;1.98;;;;;;;-0.80;56.34;101301.16;4918497;29;20126;-73
2021/11/10 04:13:39;;;;;;;7.68;2.00;;;;;;;-0.99;56.68;101315.94;4937504;28;20043;-75
2021/11/10 04:16:05;;;;;;;6.40;3.88;;;;;;;-0.98;56.97;101320.28;4948070;29;20039;-74
2021/11/10 04:18:34;;;;;;;6.30;2.63;;;;;;;-0.80;56.80;101328.88;4944928;29;20066;-75
2021/11/10 04:21:12;;;;;;;13.38;2.60;;;;;;;-0.71;56.34;101334.03;4961317;28;20082;-76
2021/11/10 04:23:38;;;;;;;8.18;2.08;;;;;;;-0.75;56.73;101345.31;4948078;29;20043;-75
2021/11/10 04:26:05;;;;;;;4.07;2.38;;;;;;;-0.78;56.16;101340.13;4920282;28;20105;-73
2021/11/10 04:28:33;;;;;;;4.63;1.75;;;;;;;-0.70;56.39;101339.25;4943820;29;20059;-75
2021/11/10 04:31:03;;;;;;;5.32;2.13;;;;;;;-0.60;55.74;101336.59;4952944;29;20069;-71
2021/11/10 04:33:31;;;;;;;3.47;1.83;;;;;;;-0.47;55.77;101330.47;4958135;28;20138;-74
2021/11/10 04:35:57;;;;;;;16.67;5.78;;;;;;;-0.44;55.76;101338.25;4952016;28;20126;-72
2021/11/10 04:38:24;;;;;;;9.27;2.70;;;;;;;-0.39;56.40;101327.84;4938159;29;20047;-73
2021/11/10 04:40:51;;;;;;;17.55;8.13;;;;;;;-0.66;56.31;101343.56;4936629;28;20508;-74
2021/11/10 04:43:17;;;;;;;11.95;4.18;;;;;;;-0.77;56.78;101342.72;4945131;28;20075;-73
2021/11/10 04:45:56;;;;;;;13.65;4.80;;;;;;;-0.82;57.10;101340.13;4925913;29;20485;-74
2021/11/10 04:48:22;;;;;;;23.05;10.95;;;;;;;-0.77;57.15;101337.53;4946590;28;20043;-74
2021/11/10 04:50:47;;;;;;;11.45;3.90;;;;;;;-0.77;56.93;101341.84;4952757;28;20047;-73
2021/11/10 04:53:14;;;;;;;14.43;3.17;;;;;;;-0.69;57.28;101350.50;4953035;28;20047;-74
2021/11/10 04:55:41;;;;;;;11.15;2.63;;;;;;;-0.53;57.10;101340.91;4931456;29;20051;-74
2021/11/10 04:58:08;;;;;;;6.00;2.87;;;;;;;-0.37;55.95;101339.09;4939101;29;20055;-75
2021/11/10 05:00:36;;;;;;;10.33;2.93;;;;;;;-0.39;56.49;101335.63;4925207;28;20554;-74
2021/11/10 05:03:03;;;;;;;17.92;2.78;;;;;;;-0.35;55.62;101330.44;4972259;28;20306;-72
2021/11/10 05:05:29;;;;;;;6.28;2.75;;;;;;;-0.61;56.17;101330.56;4942210;28;20145;-75
2021/11/10 05:07:55;;;;;;;10.40;2.42;;;;;;;-0.64;56.46;101329.69;4955165;28;20043;-73
2021/11/10 05:10:23;;;;;;;6.47;2.35;;;;;;;-0.71;56.61;101339.22;4934637;29;20043;-76
2021/11/10 05:12:55;;;;;;;7.55;2.35;;;;;;;-0.66;56.97;101342.69;4952313;29;20125;-74
2021/11/10 05:15:23;;;;;;;18.50;3.17;;;;;;;-0.75;57.45;101350.50;4936354;29;20050;-73
2021/11/10 05:17:49;;;;;;;15.82;3.50;;;;;;;-0.80;57.21;101347.06;4970334;28;20583;-74
2021/11/10 05:20:19;;;;;;;18.15;3.63;;;;;;;-0.81;57.39;101353.97;4971058;28;20050;-72
2021/11/10 05:22:47;;;;;;;20.63;7.25;;;;;;;-0.73;57.19;101349.63;4971396;28;20038;-75
2021/11/10 05:25:13;;;;;;;6.80;3.65;;;;;;;-0.75;57.17;101360.91;4972440;28;20138;-75
2021/11/10 05:27:39;;;;;;;6.00;2.58;;;;;;;-0.84;57.30;101367.84;4971119;28;20063;-75
2021/11/10 05:30:08;;;;;;;10.82;4.03;;;;;;;-0.76;57.31;101370.44;4953319;29;20118;-74
2021/11/10 05:32:34;;;;;;;10.10;3.65;;;;;;;-0.63;57.67;101366.06;4969589;28;20473;-74
2021/11/10 05:35:00;;;;;;;19.15;5.97;;;;;;;-0.45;57.09;101359.06;4972149;28;20188;-72
2021/11/10 05:37:27;;;;;;;12.85;3.38;;;;;;;-0.33;56.72;101359.84;4971662;28;20501;-75
2021/11/10 05:39:53;;;;;;;7.88;3.80;;;;;;;-0.35;56.25;101371.13;4971976;28;20104;-75
2021/11/10 05:42:19;;;;;;;6.68;3.10;;;;;;;-0.38;56.42;101378.97;4972351;28;20508;-74
2021/11/10 05:44:45;;;;;;;8.88;4.00;;;;;;;-0.29;56.17;101368.50;4972750;28;20125;-75
2021/11/10 05:47:11;;;;;;;12.63;5.28;;;;;;;-0.17;55.86;101368.44;4957933;28;20142;-73
2021/11/10 05:49:37;;;;;;;12.63;3.97;;;;;;;-0.09;55.69;101364.94;4954247;29;20043;-75
2021/11/10 05:52:04;;;;;;;22.00;6.75;;;;;;;-0.08;55.92;101364.09;4939478;29;20505;-76
2021/11/10 05:54:30;;;;;;;9.60;4.97;;;;;;;-0.13;56.12;101369.31;4956629;28;20179;-74
2021/11/10 05:56:56;;;;;;;16.98;3.85;;;;;;;-0.15;55.50;101365.84;4955898;28;20151;-72
2021/11/10 05:59:22;;;;;;;37.17;10.60;;;;;;;-0.14;55.19;101364.13;4974220;28;20859;-76
2021/11/10 06:01:48;;;;;;;15.60;4.53;;;;;;;-0.04;55.46;101361.47;4958591;28;20051;-73
2021/11/10 06:04:14;;;;;;;11.38;3.25;;;;;;;0.09;54.82;101351.84;4957012;28;20464;-73
2021/11/10 06:06:40;;;;;;;9.27;4.15;;;;;;;0.09;54.89;101357.03;4951907;28;20039;-74
2021/11/10 06:09:06;;;;;;;11.90;3.28;;;;;;;0.30;54.74;101357.78;4972477;28;20097;-75
2021/11/10 06:11:32;;;;;;;8.45;2.63;;;;;;;0.32;54.93;101369.91;4969272;28;20051;-74
2021/11/10 06:13:58;;;;;;;22.92;6.15;;;;;;;0.42;55.22;101364.63;4940676;28;20404;-72
2021/11/10 06:16:24;;;;;;;5.50;2.83;;;;;;;0.69;54.20;101371.34;4975110;28;20500;-75
2021/11/10 06:18:49;;;;;;;7.40;3.63;;;;;;;0.79;53.88;101375.59;4957437;29;20043;-72
2021/11/10 06:21:15;;;;;;;8.23;3.75;;;;;;;1.23;52.92;101373.41;4955496;29;20508;-75
2021/11/10 06:23:41;;;;;;;5.15;2.35;;;;;;;1.33;51.62;101361.16;4939877;29;20035;-74
2021/11/10 06:26:07;;;;;;;4.18;2.45;;;;;;;1.35;51.76;101366.38;4958933;28;20049;-75
2021/11/10 06:28:34;;;;;;;6.90;3.08;;;;;;;1.63;51.38;101361.66;4967147;28;20066;-74
2021/11/10 06:31:00;;;;;;;7.50;3.17;;;;;;;2.14;50.27;101370.56;4957471;29;20497;-75
2021/11/10 06:33:26;;;;;;;7.80;3.08;;;;;;;2.42;49.69;101371.00;4972465;28;20059;-73
2021/11/10 06:35:52;;;;;;;16.73;3.72;;;;;;;3.40;48.38;101362.28;4958237;28;20090;-73
2021/11/10 06:38:20;;;;;;;17.92;6.47;;;;;;;4.57;45.47;101358.81;4975697;28;20146;-75
2021/11/10 06:40:46;;;;;;;19.10;6.88;;;;;;;5.02;44.16;101355.94;4976183;28;20129;-75
2021/11/10 06:43:12;;;;;;;16.80;5.70;;;;;;;6.38;42.10;101366.00;4962737;28;20155;-76
2021/11/10 06:45:38;;;;;;;10.50;5.53;;;;;;;7.64;39.55;101354.63;4956755;29;20047;-75
2021/11/10 06:48:04;;;;;;;25.75;9.02;;;;;;;8.82;37.50;101346.44;4966636;28;20380;-76
2021/11/10 06:50:30;;;;;;;22.70;8.52;;;;;;;10.15;34.62;101348.34;4967328;28;20039;-73
2021/11/10 06:52:56;;;;;;;15.75;4.72;;;;;;;10.96;34.49;101357.63;4961129;28;20043;-75
2021/11/10 06:55:22;;;;;;;15.18;4.80;;;;;;;10.25;33.04;101354.06;4964280;28;20063;-74
2021/11/10 06:57:47;;;;;;;18.80;5.43;;;;;;;9.49;33.73;101359.38;4961127;28;20038;-77
2021/11/10 07:00:18;;;;;;;27.10;8.18;;;;;;;8.75;33.96;101350.28;4947167;28;20050;-75
2021/11/10 07:02:44;;;;;;;9.07;3.70;;;;;;;8.43;34.81;101350.63;4966535;28;20120;-75
2021/11/10 07:05:10;;;;;;;19.85;5.68;;;;;;;8.78;35.21;101352.75;4966552;28;20030;-75
2021/11/10 07:07:36;;;;;;;17.42;6.55;;;;;;;8.98;34.65;101348.41;4966686;28;20106;-76
2021/11/10 07:10:03;;;;;;;29.27;10.80;;;;;;;9.61;33.81;101344.75;4967043;28;20034;-76
2021/11/10 07:12:30;;;;;;;26.75;9.98;;;;;;;10.61;32.17;101344.41;4942786;28;20066;-77
2021/11/10 07:14:56;;;;;;;21.05;7.97;;;;;;;12.07;31.12;101342.91;4951759;28;20061;-74
2021/11/10 07:17:23;;;;;;;26.60;10.57;;;;;;;13.10;29.53;101338.69;4961269;28;20492;-75
2021/11/10 07:19:51;;;;;;;32.83;13.70;;;;;;;13.23;28.35;101336.97;4939408;28;20477;-77
2021/11/10 07:22:18;;;;;;;14.40;5.53;;;;;;;12.16;29.10;101344.19;4965231;28;20051;-74
2021/11/10 07:24:44;;;;;;;14.95;5.07;;;;;;;12.72;29.15;101350.66;4968271;28;20041;-74
2021/11/10 07:27:11;;;;;;;9.57;4.15;;;;;;;13.30;27.93;101347.25;4942829;29;20158;-74
2021/11/10 07:29:36;;;;;;;17.55;7.35;;;;;;;13.85;27.21;101345.59;4955906;28;20057;-76
2021/11/10 07:32:03;;;;;;;14.60;6.15;;;;;;;11.98;28.08;101346.94;4954134;28;20035;-74
2021/11/10 07:34:31;;;;;;;10.05;4.53;;;;;;;11.14;29.13;101354.03;4940706;28;20461;-74
2021/11/10 07:36:57;;;;;;;11.35;3.78;;;;;;;11.39;28.69;101347.44;4938131;29;20039;-75
2021/11/10 07:39:23;;;;;;;16.65;4.53;;;;;;;11.27;29.15;101337.50;4949445;28;20039;-78
2021/11/10 07:41:51;;;;;;;11.27;4.93;;;;;;;11.17;29.56;101345.91;4932975;28;20039;-75
2021/11/10 07:44:22;;;;;;;17.92;6.28;;;;;;;12.46;28.62;101342.41;4951182;28;20453;-72
2021/11/10 07:46:53;;;;;;;15.48;7.25;;;;;;;12.52;27.74;101341.19;4935646;28;20039;-74
2021/11/10 07:49:23;;;;;;;8.50;3.45;;;;;;;11.73;29.15;101347.41;4953312;28;20043;-77
2021/11/10 07:51:50;;;;;;;9.40;3.05;;;;;;;11.26;28.54;101354.31;4953410;28;20435;-72
2021/11/10 07:54:16;;;;;;;8.35;3.42;;;;;;;11.80;29.28;101349.63;4918410;29;20043;-74
2021/11/10 07:56:42;;;;;;;9.43;2.97;;;;;;;12.14;27.97;101346.94;4952653;28;20047;-73
2021/11/10 07:59:08;;;;;;;20.35;4.75;;;;;;;11.64;28.10;101351.44;4936079;29;20049;-74
2021/11/10 08:01:34;;;;;;;11.75;3.85;;;;;;;12.77;27.95;101353.91;4936303;29;20094;-73
2021/11/10 08:04:02;;;;;;;10.05;3.65;;;;;;;13.48;26.52;101355.88;4936655;28;20043;-74
2021/11/10 08:06:32;;;;;;;10.52;3.83;;;;;;;12.99;26.41;101351.75;4939189;28;20046;-73
2021/11/10 08:08:58;;;;;;;15.23;4.63;;;;;;;11.73;27.82;101353.56;4934040;28;20047;-75
2021/11/10 08:11:24;;;;;;;12.63;4.00;;;;;;;10.53;29.55;101371.25;4922096;29;20049;-75
2021/11/10 08:13:49;;;;;;;9.20;4.05;;;;;;;10.35;30.19;101362.41;4971674;28;20395;-74
2021/11/10 08:16:15;;;;;;;13.38;3.78;;;;;;;9.82;30.44;101364.91;4972206;28;20561;-77
2021/11/10 08:18:41;;;;;;;25.05;10.05;;;;;;;9.95;30.55;101364.31;4965976;28;20432;-74
2021/11/10 08:21:07;;;;;;;9.10;4.22;;;;;;;10.39;30.12;101366.63;4960650;28;20075;-74
2021/11/10 08:23:34;;;;;;;8.43;3.10;;;;;;;12.19;28.94;101370.53;4929439;29;20505;-76
2021/11/10 08:26:00;;;;;;;8.35;3.65;;;;;;;13.37;27.13;101359.16;4950995;28;20043;-77
2021/11/10 08:28:27;;;;;;;10.93;3.42;;;;;;;11.59;27.48;101366.69;4957376;28;20055;-79
2021/11/10 08:30:54;;;;;;;15.93;3.87;;;;;;;12.45;27.70;101361.94;4958367;28;20589;-79
2021/11/10 08:33:20;;;;;;;37.00;14.57;;;;;;;12.69;27.14;101364.09;4938150;28;20043;-80
2021/11/10 08:35:47;;;;;;;36.88;14.60;;;;;;;12.13;28.01;101361.97;4954557;28;20143;-79
2021/11/10 08:38:13;;;;;;;31.60;12.75;;;;;;;12.01;27.64;101362.66;4922031;28;20047;-77
2021/11/10 08:40:39;;;;;;;33.28;12.43;;;;;;;12.72;27.18;101368.38;4955992;28;20042;-84
2021/11/10 08:43:09;;;;;;;9.60;4.38;;;;;;;14.24;25.97;101360.78;4926389;29;20047;-77
2021/11/10 08:45:36;;;;;;;13.85;4.15;;;;;;;14.85;25.31;101354.16;4937018;29;20052;-77
2021/11/10 08:48:05;;;;;;;13.07;4.43;;;;;;;15.37;24.25;101353.19;4947128;28;20054;-76
2021/11/10 08:50:32;;;;;;;17.70;5.13;;;;;;;15.00;24.27;101352.25;4974351;28;20050;-78
2021/11/10 08:52:58;;;;;;;21.52;6.40;;;;;;;15.14;24.79;101345.94;4962721;28;20042;-78
2021/11/10 08:55:25;;;;;;;12.48;4.95;;;;;;;14.48;24.93;101341.47;4953639;28;20054;-76
2021/11/10 08:57:52;;;;;;;13.90;4.70;;;;;;;13.06;25.39;101335.34;4952546;28;20082;-77
2021/11/10 09:00:24;;;;;;;21.17;7.60;;;;;;;11.21;27.92;101351.06;4952268;28;20057;-79
2021/11/10 09:02:50;;;;;;;10.60;3.95;;;;;;;9.42;30.07;101340.31;4927972;28;20354;-77
2021/11/10 09:05:16;;;;;;;13.48;3.70;;;;;;;8.35;32.31;101341.31;4951313;28;20039;-77
2021/11/10 09:07:43;;;;;;;9.52;3.78;;;;;;;7.67;33.85;101336.94;4945718;29;20075;-77
2021/11/10 09:10:11;;;;;;;15.02;3.92;;;;;;;7.75;34.26;101341.91;4949590;28;20066;-78
2021/11/10 09:12:39;;;;;;;21.75;7.20;;;;;;;8.47;33.33;101340.84;4945225;28;20075;-75
2021/11/10 09:15:06;;;;;;;8.77;2.85;;;;;;;8.44;33.47;101338.34;4952313;28;20117;-77
2021/11/10 09:17:35;;;;;;;13.05;3.65;;;;;;;7.65;34.00;101332.66;4949697;28;20111;-80
2021/11/10 09:20:05;;;;;;;6.75;2.92;;;;;;;7.84;34.33;101340.69;4951127;28;20047;-80
2021/11/10 09:22:32;;;;;;;11.95;3.72;;;;;;;7.61;34.37;101332.78;4931489;29;20071;-78
2021/11/10 09:24:58;;;;;;;13.57;4.03;;;;;;;6.82;36.42;101345.28;4944789;28;20046;-76
2021/11/10 09:27:24;;;;;;;10.27;2.47;;;;;;;6.24;36.67;101343.69;4936524;29;20051;-79
2021/11/10 09:29:50;;;;;;;8.05;2.97;;;;;;;5.90;37.77;101355.19;4944995;29;20067;-75
2021/11/10 09:32:17;;;;;;;10.88;3.30;;;;;;;5.65;38.55;101361.16;4930711;29;20078;-79
2021/11/10 09:34:43;;;;;;;16.83;4.70;;;;;;;5.69;38.92;101355.84;4929963;29;20107;-80
2021/11/10 09:37:09;;;;;;;13.10;3.20;;;;;;;5.31;39.20;101348.19;4936353;29;20131;-76
2021/11/10 09:39:35;;;;;;;18.90;3.42;;;;;;;4.96;40.53;101356.09;4948813;28;20489;-77
2021/11/10 09:42:01;;;;;;;17.70;3.85;;;;;;;4.74;40.95;101347.06;4953577;28;20438;-77
2021/11/10 09:44:26;;;;;;;12.80;3.55;;;;;;;4.69;41.47;101350.66;4944014;29;20050;-80
2021/11/10 09:46:54;;;;;;;8.40;3.08;;;;;;;4.18;42.35;101340.56;4938630;29;20047;-77
2021/11/10 09:49:20;;;;;;;18.90;4.50;;;;;;;4.08;43.22;101357.41;4934809;28;20051;-76
2021/11/10 09:51:48;;;;;;;16.50;5.57;;;;;;;4.07;43.39;101358.28;4962211;28;20047;-78
2021/11/10 09:54:14;;;;;;;10.88;3.63;;;;;;;3.94;43.53;101358.56;4941310;29;20079;-78
2021/11/10 09:56:42;;;;;;;13.45;4.03;;;;;;;3.79;44.01;101343.19;4960843;28;20047;-75
2021/11/10 09:59:08;;;;;;;18.33;4.15;;;;;;;3.98;44.02;101343.66;4971385;28;20661;-78
2021/11/10 10:01:36;;;;;;;11.45;3.70;;;;;;;3.48;44.78;101338.63;4972815;28;20053;-78
2021/11/10 10:04:03;;;;;;;7.07;2.80;;;;;;;3.29;45.21;101344.22;4971937;28;20057;-78
2021/11/10 10:06:29;;;;;;;8.18;3.78;;;;;;;3.27;45.60;101348.59;4942488;28;20447;-78
2021/11/10 10:08:56;;;;;;;14.63;4.22;;;;;;;3.39;45.77;101345.75;4944550;28;20616;-78
2021/11/10 10:11:22;;;;;;;12.95;4.07;;;;;;;3.73;44.85;101342.41;4972547;28;20147;-78
2021/11/10 10:13:48;;;;;;;25.48;10.43;;;;;;;3.55;45.53;101345.41;4957284;28;20058;-78
2021/11/10 10:16:23;;;;;;;9.70;3.75;;;;;;;3.38;45.50;101345.78;4941405;28;20480;-77
2021/11/10 10:18:50;;;;;;;15.98;4.85;;;;;;;2.75;47.16;101346.09;4944380;28;20082;-79
2021/11/10 10:21:18;;;;;;;21.23;4.65;;;;;;;3.10;46.95;101342.84;4947282;28;20075;-78
2021/11/10 10:23:50;;;;;;;13.68;4.00;;;;;;;4.36;45.20;101323.53;4933504;29;20043;-77
2021/11/10 10:26:22;;;;;;;8.38;4.07;;;;;;;5.12;43.85;101318.97;4934559;28;20043;-77
2021/11/10 10:28:54;;;;;;;8.95;3.50;;;;;;;5.23;42.85;101321.28;4958506;28;20062;-78
2021/11/10 10:31:23;;;;;;;7.45;3.30;;;;;;;5.37;42.63;101315.66;4972905;28;20476;-80
2021/11/10 10:33:52;;;;;;;29.10;7.18;;;;;;;5.48;42.30;101306.56;4974508;28;20049;-82
2021/11/10 10:36:26;;;;;;;10.93;3.83;;;;;;;5.72;41.58;101313.75;4959251;28;20401;-77
2021/11/10 10:38:58;;;;;;;12.35;4.05;;;;;;;5.86;42.06;101318.56;4962693;28;20043;-78
2021/11/10 10:41:35;;;;;;;7.13;2.90;;;;;;;6.15;41.28;101301.94;4973973;28;20069;-77
2021/11/10 10:44:12;;;;;;;12.18;4.85;;;;;;;6.14;41.22;101293.19;4969763;28;20106;-78
2021/11/10 10:46:41;;;;;;;10.45;4.28;;;;;;;6.28;41.24;101305.00;4957055;28;20051;-76
2021/11/10 10:49:21;;;;;;;9.52;4.20;;;;;;;6.33;40.96;101300.50;4939366;28;20401;-78
2021/11/10 10:51:52;;;;;;;16.83;3.53;;;;;;;6.31;41.19;101297.03;4965973;28;20039;-77
2021/11/10 10:54:21;;;;;;;14.00;3.80;;;;;;;6.38;40.52;101295.06;4959892;28;20093;-79
2021/11/10 10:56:54;;;;;;;8.07;3.42;;;;;;;6.02;41.02;101290.09;4959911;28;20054;-76
2021/11/10 10:59:23;;;;;;;26.10;7.53;;;;;;;5.37;41.70;101297.28;4971674;28;20102;-80
2021/11/10 11:02:03;;;;;;;14.98;5.07;;;;;;;4.98;43.17;101296.59;4970180;28;20051;-79
2021/11/10 11:04:31;;;;;;;9.07;2.20;;;;;;;4.87;43.66;101293.41;4960408;28;20039;-79
2021/11/10 11:07:02;;;;;;;15.20;4.43;;;;;;;4.79;43.60;101295.38;4966898;28;20046;-79
2021/11/10 11:09:34;;;;;;;11.60;2.67;;;;;;;4.74;44.15;101292.03;4968619;28;20055;-75
2021/11/10 11:12:14;;;;;;;6.03;2.53;;;;;;;4.41;44.37;101287.63;4962805;28;20054;-77
2021/11/10 11:17:21;;;;;;;;;;;;;;;4.00;45.28;101276.38;4958559;28;20141;-82
2021/11/10 11:20:00;;;;;;;48.03;13.50;;;;;;;3.45;46.29;101275.91;4956753;28;19918;-76
2021/11/10 11:22:33;;;;;;;17.42;5.38;;;;;;;3.36;47.30;101271.72;4949568;28;20031;-76
2021/11/10 11:25:22;;;;;;;12.63;3.58;;;;;;;3.46;47.42;101267.16;4965396;28;20042;-79
2021/11/10 11:28:03;;;;;;;10.75;3.70;;;;;;;3.48;47.25;101262.78;4974137;28;20051;-80
2021/11/10 11:30:34;;;;;;;9.02;4.10;;;;;;;3.16;47.49;101254.69;4959435;28;20101;-80